Time;durP1;ratioP1;P1;durP2;ratioP2;P2;SDS_P1;SDS_P2;PMS_P1;PMS_P2;Temp;Humidity;BMP_temperature;BMP_pressure;BME280_temperature;BME280_humidity;BME280_pressure;Samples;Min_cycle;Max_cycle;Signal;HPM_P1;HPM_P2
2023/04/05 00:01:38;;;;;;;7.68;5.15;;;;;;;;;;4994857;28;20199;-70
2023/04/05 00:04:07;;;;;;;11.20;6.63;;;;;;;;;;4996221;28;20206;-69
2023/04/05 00:06:36;;;;;;;7.88;5.80;;;;;;;;;;4993613;28;20671;-68
2023/04/05 00:09:04;;;;;;;10.80;6.50;;;;;;;;;;4996884;28;20227;-69
2023/04/05 00:11:32;;;;;;;9.63;6.13;;;;;;;;;;4994071;28;20565;-68
2023/04/05 00:13:59;;;;;;;12.68;6.55;;;;;;;;;;4994039;28;20196;-68
2023/04/05 00:16:27;;;;;;;7.85;6.68;;;;;;;;;;4993839;28;20200;-69
2023/04/05 00:18:55;;;;;;;7.85;6.30;;;;;;;;;;4993589;28;20209;-69
2023/04/05 00:21:24;;;;;;;6.43;5.65;;;;;;;;;;4994036;28;20254;-68
2023/04/05 00:23:51;;;;;;;8.93;5.85;;;;;;;;;;4993832;28;20210;-68
2023/04/05 00:26:19;;;;;;;7.85;6.32;;;;;;;;;;4993720;28;20203;-69
2023/04/05 00:28:47;;;;;;;6.85;5.95;;;;;;;;;;4993772;28;20196;-68
2023/04/05 00:31:15;;;;;;;6.00;5.38;;;;;;;;;;4993360;28;20204;-69
2023/04/05 00:33:42;;;;;;;7.50;6.57;;;;;;;;;;4994135;28;20696;-68
2023/04/05 00:36:10;;;;;;;8.88;6.00;;;;;;;;;;4994106;28;20286;-68
2023/04/05 00:38:38;;;;;;;9.35;6.22;;;;;;;;;;4993946;28;20208;-69
2023/04/05 00:41:06;;;;;;;10.32;7.63;;;;;;;;;;4993517;28;20306;-69
2023/04/05 00:43:33;;;;;;;7.65;5.55;;;;;;;;;;4993414;28;20206;-69
2023/04/05 00:46:01;;;;;;;8.77;6.63;;;;;;;;;;4994460;28;20653;-69
2023/04/05 00:48:29;;;;;;;7.05;6.35;;;;;;;;;;4997390;28;20215;-69
2023/04/05 00:50:57;;;;;;;9.40;6.18;;;;;;;;;;4996943;28;20208;-69
2023/04/05 00:53:25;;;;;;;13.63;6.50;;;;;;;;;;4997034;28;20197;-69
2023/04/05 00:55:54;;;;;;;8.55;5.65;;;;;;;;;;5006808;28;20200;-69
2023/04/05 00:58:21;;;;;;;9.40;6.10;;;;;;;;;;5016552;28;20649;-68
2023/04/05 01:00:55;;;;;;;10.57;6.80;;;;;;;;;;5016612;28;20266;-69
2023/04/05 01:03:25;;;;;;;7.57;5.78;;;;;;;;;;5012232;28;20199;-69
2023/04/05 01:05:56;;;;;;;6.18;5.57;;;;;;;;;;5016293;28;20670;-69
2023/04/05 01:08:28;;;;;;;8.02;6.45;;;;;;;;;;5015774;28;20186;-68
2023/04/05 01:10:58;;;;;;;9.18;6.05;;;;;;;;;;4999886;28;20213;-69
2023/04/05 01:13:25;;;;;;;9.85;5.60;;;;;;;;;;4996650;28;20205;-69
2023/04/05 01:15:53;;;;;;;7.03;5.20;;;;;;;;;;4996842;28;20204;-69
2023/04/05 01:18:20;;;;;;;7.40;5.72;;;;;;;;;;4996825;28;20200;-69
2023/04/05 01:20:52;;;;;;;6.53;5.90;;;;;;;;;;4997167;28;20225;-69
2023/04/05 01:23:37;;;;;;;8.27;5.95;;;;;;;;;;4997444;28;20202;-68
2023/04/05 01:26:21;;;;;;;5.40;4.90;;;;;;;;;;4996962;28;20188;-69
2023/04/05 01:29:03;;;;;;;8.85;6.60;;;;;;;;;;4996838;28;20230;-69
2023/04/05 01:31:35;;;;;;;6.82;6.10;;;;;;;;;;4984265;28;20290;-69
2023/04/05 01:34:06;;;;;;;9.35;6.03;;;;;;;;;;4996319;28;20198;-70
2023/04/05 01:36:37;;;;;;;7.07;5.80;;;;;;;;;;4996203;28;20187;-69
2023/04/05 01:39:06;;;;;;;7.60;6.15;;;;;;;;;;4996864;28;20199;-69
2023/04/05 01:41:33;;;;;;;8.35;7.00;;;;;;;;;;4995995;28;20229;-69
2023/04/05 01:44:00;;;;;;;8.05;6.15;;;;;;;;;;4996165;28;20206;-69
2023/04/05 01:46:27;;;;;;;8.40;5.97;;;;;;;;;;4996023;28;20198;-69
2023/04/05 01:48:56;;;;;;;12.10;6.70;;;;;;;;;;4996617;28;20199;-68
2023/04/05 01:51:23;;;;;;;7.55;6.60;;;;;;;;;;4996258;28;20210;-69
2023/04/05 01:53:50;;;;;;;8.75;6.70;;;;;;;;;;4996191;28;20222;-69
2023/04/05 01:56:17;;;;;;;7.50;6.40;;;;;;;;;;4995881;28;20205;-69
2023/04/05 01:58:45;;;;;;;7.90;6.20;;;;;;;;;;4996179;28;20203;-69
2023/04/05 02:01:12;;;;;;;8.25;6.15;;;;;;;;;;4995673;28;20221;-69
2023/04/05 02:03:39;;;;;;;6.88;5.55;;;;;;;;;;5012472;28;20205;-69
2023/04/05 02:06:08;;;;;;;9.32;6.78;;;;;;;;;;5015488;28;20729;-69
2023/04/05 02:08:35;;;;;;;8.05;6.53;;;;;;;;;;5014698;28;20202;-70
2023/04/05 02:11:02;;;;;;;8.40;5.40;;;;;;;;;;4998451;28;20213;-69
2023/04/05 02:13:29;;;;;;;8.50;6.28;;;;;;;;;;4995834;28;20195;-69
2023/04/05 02:15:56;;;;;;;6.65;5.88;;;;;;;;;;4996066;28;20199;-69
2023/04/05 02:18:28;;;;;;;8.18;6.60;;;;;;;;;;4995705;28;20196;-69
2023/04/05 02:21:01;;;;;;;6.82;5.90;;;;;;;;;;4995953;28;20215;-68
2023/04/05 02:23:31;;;;;;;6.85;6.03;;;;;;;;;;4995330;28;20226;-69
2023/04/05 02:25:58;;;;;;;8.93;6.55;;;;;;;;;;4995864;28;20207;-68
2023/04/05 02:28:25;;;;;;;9.55;6.28;;;;;;;;;;4995471;28;20211;-69
2023/04/05 02:30:53;;;;;;;9.48;6.35;;;;;;;;;;4995195;28;20206;-68
2023/04/05 02:33:21;;;;;;;9.70;6.15;;;;;;;;;;4994979;28;20203;-69
2023/04/05 02:35:49;;;;;;;7.55;6.22;;;;;;;;;;4994926;28;20239;-70
2023/04/05 02:38:16;;;;;;;11.35;6.70;;;;;;;;;;4994996;28;20202;-69
2023/04/05 02:40:46;;;;;;;7.00;6.30;;;;;;;;;;4995004;28;20693;-69
2023/04/05 02:43:14;;;;;;;9.60;6.30;;;;;;;;;;4994953;28;20183;-69
2023/04/05 02:45:41;;;;;;;8.38;5.40;;;;;;;;;;4995208;28;20199;-69
2023/04/05 02:48:08;;;;;;;8.00;6.35;;;;;;;;;;4995259;28;20202;-69
2023/04/05 02:50:35;;;;;;;10.30;6.40;;;;;;;;;;4995354;28;20198;-69
2023/04/05 02:53:02;;;;;;;8.43;6.45;;;;;;;;;;4995041;28;20199;-68
2023/04/05 02:55:32;;;;;;;9.88;6.97;;;;;;;;;;4995572;28;20208;-69
2023/04/05 02:58:01;;;;;;;8.88;5.80;;;;;;;;;;4995125;28;20287;-69
2023/04/05 03:00:28;;;;;;;10.30;5.82;;;;;;;;;;4995203;28;20239;-69
2023/04/05 03:02:56;;;;;;;9.07;6.32;;;;;;;;;;4995088;28;20616;-69
2023/04/05 03:05:23;;;;;;;8.13;6.38;;;;;;;;;;4994454;28;20200;-69
2023/04/05 03:07:51;;;;;;;12.05;6.53;;;;;;;;;;4994438;28;20218;-69
2023/04/05 03:10:21;;;;;;;14.27;7.07;;;;;;;;;;4997253;28;20295;-69
2023/04/05 03:12:50;;;;;;;11.57;6.05;;;;;;;;;;4994904;28;20187;-69
2023/04/05 03:15:18;;;;;;;10.25;5.70;;;;;;;;;;4994701;28;20199;-69
2023/04/05 03:17:45;;;;;;;10.68;6.85;;;;;;;;;;4995046;28;20200;-69
2023/04/05 03:20:13;;;;;;;9.70;6.07;;;;;;;;;;4994559;28;20198;-68
2023/04/05 03:22:41;;;;;;;7.88;6.35;;;;;;;;;;4994876;28;20198;-69
2023/04/05 03:25:08;;;;;;;8.05;6.32;;;;;;;;;;4994519;28;20277;-68
2023/04/05 03:27:37;;;;;;;8.90;6.13;;;;;;;;;;4994115;28;20291;-69
2023/04/05 03:30:04;;;;;;;5.90;5.30;;;;;;;;;;4994341;28;20200;-69
2023/04/05 03:32:33;;;;;;;7.60;5.93;;;;;;;;;;4994297;28;20569;-69
2023/04/05 03:35:00;;;;;;;7.97;7.18;;;;;;;;;;4994155;28;20332;-69
2023/04/05 03:37:27;;;;;;;9.85;6.30;;;;;;;;;;4994768;28;20262;-69
2023/04/05 03:39:54;;;;;;;7.18;5.97;;;;;;;;;;4994273;28;20202;-69
2023/04/05 03:42:22;;;;;;;6.70;6.00;;;;;;;;;;4994392;28;20223;-68
2023/04/05 03:44:50;;;;;;;8.00;5.65;;;;;;;;;;4994207;28;20204;-68
2023/04/05 03:47:17;;;;;;;6.93;6.20;;;;;;;;;;4994287;28;20205;-68
2023/04/05 03:49:46;;;;;;;8.27;5.82;;;;;;;;;;4994227;28;20208;-67
2023/04/05 03:52:13;;;;;;;8.80;6.05;;;;;;;;;;5011222;28;20288;-68
2023/04/05 03:54:40;;;;;;;7.30;6.10;;;;;;;;;;5013608;28;20221;-68
2023/04/05 03:57:07;;;;;;;6.68;5.45;;;;;;;;;;5013788;28;20283;-68
2023/04/05 03:59:35;;;;;;;8.35;6.60;;;;;;;;;;5014056;28;20568;-68
2023/04/05 04:02:02;;;;;;;6.50;5.90;;;;;;;;;;5013296;28;20217;-68
2023/04/05 04:04:29;;;;;;;5.40;4.90;;;;;;;;;;5013704;28;20202;-68
2023/04/05 04:06:58;;;;;;;6.30;5.70;;;;;;;;;;5013585;28;20202;-69
2023/04/05 04:09:26;;;;;;;8.15;6.28;;;;;;;;;;5013816;28;20288;-68
2023/04/05 04:11:54;;;;;;;6.40;5.50;;;;;;;;;;5013509;28;20562;-67
2023/04/05 04:14:21;;;;;;;14.63;6.03;;;;;;;;;;5013228;28;20288;-68
2023/04/05 04:16:48;;;;;;;6.43;5.55;;;;;;;;;;5013838;28;20301;-68
2023/04/05 04:19:17;;;;;;;7.22;5.40;;;;;;;;;;5013173;28;20678;-67
2023/04/05 04:21:50;;;;;;;9.05;5.45;;;;;;;;;;5017312;28;20217;-69
2023/04/05 04:24:19;;;;;;;6.22;5.38;;;;;;;;;;5017180;28;20280;-67
2023/04/05 04:26:46;;;;;;;14.57;6.60;;;;;;;;;;5017737;28;20219;-68
2023/04/05 04:29:15;;;;;;;7.00;5.55;;;;;;;;;;5017272;28;20193;-68
2023/04/05 04:31:44;;;;;;;7.15;6.22;;;;;;;;;;5017304;28;20266;-68
2023/04/05 04:34:12;;;;;;;8.80;5.20;;;;;;;;;;5017026;28;20251;-68
2023/04/05 04:36:41;;;;;;;6.97;5.93;;;;;;;;;;5017976;28;20260;-68
2023/04/05 04:39:09;;;;;;;10.27;5.80;;;;;;;;;;5017261;28;20205;-68
2023/04/05 04:41:37;;;;;;;5.88;5.32;;;;;;;;;;5016741;28;20221;-68
2023/04/05 04:44:05;;;;;;;6.90;5.70;;;;;;;;;;5016976;28;20204;-76
2023/04/05 04:46:41;;;;;;;10.38;5.55;;;;;;;;;;5016907;28;20200;-72
2023/04/05 04:49:09;;;;;;;7.90;5.68;;;;;;;;;;5016665;28;20183;-68
2023/04/05 04:51:38;;;;;;;13.57;6.40;;;;;;;;;;5017116;28;20228;-69
2023/04/05 04:54:06;;;;;;;6.50;5.28;;;;;;;;;;5016856;28;20197;-68
2023/04/05 04:56:33;;;;;;;8.73;6.30;;;;;;;;;;5016525;28;20199;-68
2023/04/05 04:59:01;;;;;;;6.50;5.80;;;;;;;;;;5016646;28;20202;-68
2023/04/05 05:01:29;;;;;;;12.45;6.13;;;;;;;;;;5016716;28;20680;-68
2023/04/05 05:03:56;;;;;;;7.63;5.65;;;;;;;;;;5016694;28;20252;-69
2023/04/05 05:06:23;;;;;;;7.28;5.57;;;;;;;;;;5016913;28;20201;-68
2023/04/05 05:08:50;;;;;;;10.68;7.18;;;;;;;;;;5016801;28;20198;-69
2023/04/05 05:11:18;;;;;;;8.30;6.53;;;;;;;;;;5016226;28;20202;-68
2023/04/05 05:13:45;;;;;;;8.57;5.63;;;;;;;;;;5016080;28;20212;-68
2023/04/05 05:16:13;;;;;;;9.00;5.75;;;;;;;;;;5016137;28;20209;-68
2023/04/05 05:18:41;;;;;;;7.80;5.38;;;;;;;;;;5016053;28;20608;-68
2023/04/05 05:21:08;;;;;;;9.15;5.80;;;;;;;;;;5016251;28;20571;-68
2023/04/05 05:23:36;;;;;;;10.02;6.32;;;;;;;;;;5016797;28;20195;-67
2023/04/05 05:26:03;;;;;;;7.57;5.00;;;;;;;;;;5016188;28;20194;-68
2023/04/05 05:28:30;;;;;;;7.80;5.68;;;;;;;;;;5016264;28;20203;-68
2023/04/05 05:30:57;;;;;;;6.72;5.97;;;;;;;;;;5015462;28;20216;-68
2023/04/05 05:33:26;;;;;;;14.23;8.73;;;;;;;;;;5015478;28;20209;-68
2023/04/05 05:35:53;;;;;;;8.93;7.22;;;;;;;;;;5016221;28;20321;-68
2023/04/05 05:38:20;;;;;;;10.18;6.90;;;;;;;;;;5016070;28;20203;-68
2023/04/05 05:40:48;;;;;;;11.52;6.28;;;;;;;;;;5015841;28;20206;-67
2023/04/05 05:43:15;;;;;;;14.88;9.90;;;;;;;;;;5015643;28;20203;-68
2023/04/05 05:45:42;;;;;;;8.38;7.13;;;;;;;;;;5015604;28;20232;-68
2023/04/05 05:48:10;;;;;;;6.72;6.13;;;;;;;;;;5015984;28;20209;-67
2023/04/05 05:50:38;;;;;;;8.55;5.80;;;;;;;;;;5015937;28;20195;-68
2023/04/05 05:53:05;;;;;;;12.80;5.85;;;;;;;;;;5015832;28;20208;-68
2023/04/05 05:55:32;;;;;;;11.02;6.50;;;;;;;;;;5015593;28;20564;-68
2023/04/05 05:58:00;;;;;;;16.45;5.70;;;;;;;;;;5015497;28;20655;-68
2023/04/05 06:00:27;;;;;;;8.88;5.60;;;;;;;;;;5015875;28;20587;-68
2023/04/05 06:02:54;;;;;;;7.32;6.38;;;;;;;;;;5015023;28;20699;-68
2023/04/05 06:05:21;;;;;;;11.55;8.23;;;;;;;;;;5015366;28;20202;-68
2023/04/05 06:07:50;;;;;;;11.15;7.20;;;;;;;;;;5015425;28;20199;-68
2023/04/05 06:10:17;;;;;;;11.15;6.00;;;;;;;;;;5015050;28;20197;-68
2023/04/05 06:12:44;;;;;;;10.07;6.18;;;;;;;;;;5016006;28;20230;-68
2023/04/05 06:15:12;;;;;;;12.68;5.93;;;;;;;;;;5016025;28;20647;-68
2023/04/05 06:17:41;;;;;;;8.85;6.22;;;;;;;;;;5015622;28;20196;-68
2023/04/05 06:20:10;;;;;;;10.48;5.35;;;;;;;;;;5015313;28;20214;-68
2023/04/05 06:22:39;;;;;;;11.40;6.72;;;;;;;;;;5015125;28;20305;-67
2023/04/05 06:25:08;;;;;;;8.40;6.25;;;;;;;;;;5015189;28;20559;-68
2023/04/05 06:27:35;;;;;;;10.63;6.80;;;;;;;;;;5014744;28;20198;-68
2023/04/05 06:30:02;;;;;;;13.68;6.88;;;;;;;;;;5015189;28;20198;-68
2023/04/05 06:32:30;;;;;;;8.90;6.72;;;;;;;;;;5015084;28;20309;-68
2023/04/05 06:34:57;;;;;;;10.73;7.47;;;;;;;;;;5015249;28;20257;-68
2023/04/05 06:37:24;;;;;;;8.07;5.40;;;;;;;;;;5014886;28;20206;-67
2023/04/05 06:39:51;;;;;;;6.60;5.90;;;;;;;;;;5014933;28;20209;-67
2023/04/05 06:42:20;;;;;;;8.38;5.45;;;;;;;;;;5014735;28;20237;-68
2023/04/05 06:44:47;;;;;;;8.45;5.95;;;;;;;;;;5013581;28;20199;-69
2023/04/05 06:47:14;;;;;;;13.52;6.63;;;;;;;;;;5014739;28;20203;-67
2023/04/05 06:49:42;;;;;;;9.82;5.63;;;;;;;;;;5014447;28;20656;-68
2023/04/05 06:52:09;;;;;;;7.25;6.55;;;;;;;;;;5014235;28;20205;-68
2023/04/05 06:54:38;;;;;;;10.55;5.88;;;;;;;;;;5014326;28;20199;-68
2023/04/05 06:57:06;;;;;;;9.15;6.10;;;;;;;;;;5014224;28;20193;-68
2023/04/05 06:59:34;;;;;;;8.90;6.45;;;;;;;;;;5014248;28;20195;-68
2023/04/05 07:02:01;;;;;;;8.93;5.60;;;;;;;;;;5014006;28;20219;-68
2023/04/05 07:04:36;;;;;;;8.20;5.80;;;;;;;;;;5091352;27;20877;-68
2023/04/05 07:07:04;;;;;;;9.32;5.80;;;;;;;;;;5090776;28;20201;-68
2023/04/05 07:09:32;;;;;;;7.20;5.57;;;;;;;;;;5090892;28;20194;-68
2023/04/05 07:12:00;;;;;;;6.25;5.65;;;;;;;;;;5090787;28;20203;-68
2023/04/05 07:14:27;;;;;;;7.07;5.60;;;;;;;;;;5090561;28;20200;-68
2023/04/05 07:16:54;;;;;;;6.72;5.85;;;;;;;;;;5090747;28;20567;-68
2023/04/05 07:19:21;;;;;;;10.90;6.30;;;;;;;;;;5091045;28;20193;-68
2023/04/05 07:21:50;;;;;;;9.80;7.22;;;;;;;;;;5090548;28;20198;-68
2023/04/05 07:24:17;;;;;;;7.13;5.85;;;;;;;;;;5090747;28;20219;-68
2023/04/05 07:26:44;;;;;;;15.13;6.20;;;;;;;;;;5090519;28;20203;-68
2023/04/05 07:29:12;;;;;;;6.72;6.13;;;;;;;;;;5090719;28;20190;-68
2023/04/05 07:31:39;;;;;;;9.07;6.03;;;;;;;;;;5090729;28;20194;-68
2023/04/05 07:34:06;;;;;;;9.43;6.32;;;;;;;;;;5090842;28;20199;-68
2023/04/05 07:36:34;;;;;;;10.52;5.93;;;;;;;;;;5090355;28;20202;-68
2023/04/05 07:39:04;;;;;;;12.15;5.80;;;;;;;;;;5089966;28;20195;-68
2023/04/05 07:41:31;;;;;;;8.25;6.50;;;;;;;;;;5090296;28;20198;-68
2023/04/05 07:43:59;;;;;;;6.00;5.07;;;;;;;;;;5090451;28;20215;-68
2023/04/05 07:46:27;;;;;;;6.00;5.38;;;;;;;;;;5090376;28;20197;-68
2023/04/05 07:48:54;;;;;;;12.05;8.18;;;;;;;;;;5090136;28;20196;-68
2023/04/05 07:51:21;;;;;;;8.63;6.22;;;;;;;;;;5090683;28;20204;-68
2023/04/05 07:53:48;;;;;;;6.03;5.43;;;;;;;;;;5089754;28;20296;-68
2023/04/05 07:56:17;;;;;;;9.80;5.63;;;;;;;;;;5090151;28;20200;-68
2023/04/05 07:58:46;;;;;;;10.30;5.78;;;;;;;;;;5089728;28;20280;-68
2023/04/05 08:01:13;;;;;;;7.22;4.72;;;;;;;;;;5107787;28;20666;-68
2023/04/05 08:03:40;;;;;;;6.75;6.05;;;;;;;;;;5110041;28;20232;-68
2023/04/05 08:06:11;;;;;;;7.78;5.60;;;;;;;;;;5110154;28;20295;-69
2023/04/05 08:08:38;;;;;;;7.88;4.93;;;;;;;;;;5109719;28;20199;-69
2023/04/05 08:11:05;;;;;;;12.07;5.72;;;;;;;;;;5109951;28;20195;-68
2023/04/05 08:13:35;;;;;;;6.82;4.60;;;;;;;;;;5109943;28;20206;-70
2023/04/05 08:16:03;;;;;;;6.55;5.43;;;;;;;;;;5095634;28;20239;-68
2023/04/05 08:18:30;;;;;;;7.43;5.00;;;;;;;;;;5096331;28;20192;-68
2023/04/05 08:20:57;;;;;;;5.57;4.43;;;;;;;;;;5096410;28;20322;-68
2023/04/05 08:23:24;;;;;;;8.05;5.60;;;;;;;;;;5095847;28;20217;-68
2023/04/05 08:25:52;;;;;;;6.85;5.40;;;;;;;;;;5096661;28;20193;-68
2023/04/05 08:28:19;;;;;;;6.22;5.18;;;;;;;;;;5095867;28;20198;-68
2023/04/05 08:30:47;;;;;;;7.50;5.18;;;;;;;;;;5095884;28;20190;-68
2023/04/05 08:33:15;;;;;;;6.57;4.85;;;;;;;;;;5096186;28;20300;-68
2023/04/05 08:35:43;;;;;;;5.05;4.53;;;;;;;;;;5096128;28;20196;-68
2023/04/05 08:38:11;;;;;;;6.47;4.70;;;;;;;;;;5095606;28;20201;-68
2023/04/05 08:40:41;;;;;;;7.75;5.10;;;;;;;;;;5095792;28;20693;-68
2023/04/05 08:43:11;;;;;;;5.20;4.72;;;;;;;;;;5095885;28;20212;-68
2023/04/05 08:45:44;;;;;;;6.68;6.10;;;;;;;;;;5095552;28;20238;-68
2023/04/05 08:48:13;;;;;;;6.63;5.70;;;;;;;;;;5096085;28;20191;-68
2023/04/05 08:50:40;;;;;;;7.70;5.10;;;;;;;;;;5095463;28;20658;-68
2023/04/05 08:53:09;;;;;;;5.13;4.50;;;;;;;;;;5095602;28;20197;-68
2023/04/05 08:55:36;;;;;;;5.72;4.55;;;;;;;;;;5095648;28;20238;-68
2023/04/05 08:58:08;;;;;;;6.43;5.30;;;;;;;;;;5095518;28;20197;-68
2023/04/05 09:00:35;;;;;;;11.52;7.72;;;;;;;;;;5095640;28;20234;-68
2023/04/05 09:03:03;;;;;;;17.20;6.70;;;;;;;;;;5095129;28;20689;-68
2023/04/05 09:05:32;;;;;;;6.93;5.57;;;;;;;;;;5095495;28;20284;-68
2023/04/05 09:07:59;;;;;;;5.50;5.00;;;;;;;;;;5095344;28;20560;-68
2023/04/05 09:10:28;;;;;;;6.55;5.22;;;;;;;;;;5095527;28;20292;-68
2023/04/05 09:12:56;;;;;;;10.15;6.13;;;;;;;;;;5095372;28;20554;-68
2023/04/05 09:15:25;;;;;;;5.75;5.25;;;;;;;;;;5095447;28;20198;-68
2023/04/05 09:17:53;;;;;;;9.43;5.50;;;;;;;;;;5095225;28;20562;-68
2023/04/05 09:20:20;;;;;;;12.35;5.90;;;;;;;;;;5095128;28;20199;-68
2023/04/05 09:22:49;;;;;;;8.75;5.03;;;;;;;;;;5095111;28;20194;-68
2023/04/05 09:25:34;;;;;;;6.25;5.15;;;;;;;;;;5094987;28;20231;-68
2023/04/05 09:28:02;;;;;;;6.78;6.10;;;;;;;;;;5094130;28;20189;-68
2023/04/05 09:30:30;;;;;;;8.82;5.68;;;;;;;;;;5095067;28;20204;-68
2023/04/05 09:32:57;;;;;;;6.30;5.55;;;;;;;;;;5095182;28;20554;-68
2023/04/05 09:35:25;;;;;;;6.32;5.72;;;;;;;;;;5094911;28;20205;-67
2023/04/05 09:37:55;;;;;;;8.80;5.55;;;;;;;;;;5094466;28;20289;-68
2023/04/05 09:40:22;;;;;;;8.98;5.50;;;;;;;;;;5094838;28;20230;-68
2023/04/05 09:42:50;;;;;;;12.20;6.30;;;;;;;;;;5094393;28;20658;-68
2023/04/05 09:45:18;;;;;;;7.63;5.95;;;;;;;;;;5094730;28;20229;-68
2023/04/05 09:47:54;;;;;;;7.10;6.40;;;;;;;;;;5094328;28;20193;-68
2023/04/05 09:50:21;;;;;;;9.27;5.53;;;;;;;;;;5094770;28;20545;-68
2023/04/05 09:52:50;;;;;;;6.90;6.20;;;;;;;;;;5094578;28;20207;-68
2023/04/05 09:55:27;;;;;;;9.35;6.45;;;;;;;;;;5094574;28;20197;-68
2023/04/05 09:57:55;;;;;;;9.38;7.55;;;;;;;;;;5094410;28;20253;-68
2023/04/05 10:00:23;;;;;;;9.68;6.80;;;;;;;;;;5094490;28;20197;-68
2023/04/05 10:02:53;;;;;;;8.48;6.22;;;;;;;;;;5093908;28;20221;-68
2023/04/05 10:05:24;;;;;;;8.35;6.00;;;;;;;;;;5094330;28;20224;-68
2023/04/05 10:07:51;;;;;;;11.25;6.75;;;;;;;;;;5094287;28;20188;-68
2023/04/05 10:10:18;;;;;;;7.50;6.18;;;;;;;;;;5094650;28;20202;-68
2023/04/05 10:12:47;;;;;;;7.03;6.30;;;;;;;;;;5094568;28;20196;-68
2023/04/05 10:15:15;;;;;;;7.78;6.47;;;;;;;;;;5093783;28;20208;-67
2023/04/05 10:17:48;;;;;;;7.75;4.60;;;;;;;;;;5094090;28;20284;-68
2023/04/05 10:20:16;;;;;;;9.40;5.97;;;;;;;;;;5093691;28;20186;-67
2023/04/05 10:22:49;;;;;;;9.00;6.70;;;;;;;;;;5093642;28;20246;-67
2023/04/05 10:25:22;;;;;;;7.47;6.50;;;;;;;;;;5093530;28;20205;-67
2023/04/05 10:27:55;;;;;;;7.38;5.00;;;;;;;;;;5093709;28;20189;-67
2023/04/05 10:30:24;;;;;;;7.88;5.88;;;;;;;;;;5093553;28;20181;-67
2023/04/05 10:33:01;;;;;;;17.33;11.95;;;;;;;;;;5093400;28;20202;-67
2023/04/05 10:35:32;;;;;;;6.18;5.63;;;;;;;;;;5093513;28;20185;-67
2023/04/05 10:38:07;;;;;;;6.88;5.50;;;;;;;;;;5093353;28;20191;-67
2023/04/05 10:40:36;;;;;;;6.03;5.22;;;;;;;;;;5093468;28;20642;-68
2023/04/05 10:43:07;;;;;;;5.93;5.05;;;;;;;;;;5093487;28;20541;-67
2023/04/05 10:45:37;;;;;;;9.30;5.28;;;;;;;;;;5093315;28;20571;-67
2023/04/05 10:48:06;;;;;;;5.15;4.63;;;;;;;;;;5093975;28;20193;-68
2023/04/05 10:50:34;;;;;;;7.30;5.40;;;;;;;;;;5093604;28;20193;-67
2023/04/05 10:53:01;;;;;;;5.55;5.05;;;;;;;;;;5094025;28;20245;-67
2023/04/05 10:55:29;;;;;;;6.53;5.00;;;;;;;;;;5093135;28;20201;-67
2023/04/05 10:57:57;;;;;;;7.53;6.10;;;;;;;;;;5093420;28;20195;-67
2023/04/05 11:00:26;;;;;;;5.97;5.45;;;;;;;;;;5093377;28;20659;-67
2023/04/05 11:02:55;;;;;;;6.47;5.40;;;;;;;;;;5092962;28;20221;-67
2023/04/05 11:05:33;;;;;;;7.28;5.32;;;;;;;;;;5093529;28;20231;-67
2023/04/05 11:08:04;;;;;;;5.63;4.60;;;;;;;;;;5093213;28;20196;-67
2023/04/05 11:10:32;;;;;;;4.15;3.67;;;;;;;;;;5093395;28;20189;-68
2023/04/05 11:13:03;;;;;;;8.00;4.53;;;;;;;;;;5093999;28;20204;-68
2023/04/05 11:15:33;;;;;;;5.40;4.90;;;;;;;;;;5093501;28;20189;-67
2023/04/05 11:18:07;;;;;;;5.78;4.43;;;;;;;;;;5093146;28;20548;-68
2023/04/05 11:20:42;;;;;;;6.63;4.75;;;;;;;;;;5093093;28;20196;-68
2023/04/05 11:23:09;;;;;;;8.85;5.45;;;;;;;;;;5093746;28;20287;-67
2023/04/05 11:25:39;;;;;;;5.55;5.05;;;;;;;;;;5092877;28;20308;-67
2023/04/05 11:28:07;;;;;;;6.60;5.18;;;;;;;;;;5093798;28;20269;-67
2023/04/05 11:30:49;;;;;;;6.93;5.75;;;;;;;;;;5092845;28;20195;-67
2023/04/05 11:33:34;;;;;;;5.78;5.00;;;;;;;;;;5093169;28;20731;-67
2023/04/05 11:36:02;;;;;;;6.15;5.25;;;;;;;;;;5093301;28;20186;-68
2023/04/05 11:38:29;;;;;;;6.13;5.53;;;;;;;;;;5093652;28;20209;-67
2023/04/05 11:41:06;;;;;;;7.18;5.68;;;;;;;;;;5093148;28;20552;-67
2023/04/05 11:43:34;;;;;;;6.32;5.32;;;;;;;;;;5092868;28;20181;-68
2023/04/05 11:46:04;;;;;;;6.82;5.97;;;;;;;;;;5092947;28;20224;-68
2023/04/05 11:48:31;;;;;;;5.82;5.22;;;;;;;;;;5093436;28;20594;-67
2023/04/05 11:50:59;;;;;;;9.20;6.03;;;;;;;;;;5095742;28;20198;-67
2023/04/05 11:53:26;;;;;;;6.95;5.03;;;;;;;;;;5096620;28;20227;-67
2023/04/05 11:55:54;;;;;;;6.88;6.25;;;;;;;;;;5097062;28;20197;-67
2023/04/05 11:58:22;;;;;;;5.70;5.18;;;;;;;;;;5096857;28;20600;-69
2023/04/05 12:00:58;;;;;;;6.65;5.57;;;;;;;;;;5096717;28;20290;-68
2023/04/05 12:03:27;;;;;;;5.67;5.13;;;;;;;;;;5096201;28;20682;-68
2023/04/05 12:05:55;;;;;;;6.30;5.47;;;;;;;;;;5096571;28;20532;-68
2023/04/05 12:08:23;;;;;;;8.95;5.50;;;;;;;;;;5096576;28;20193;-68
2023/04/05 12:10:56;;;;;;;8.43;6.10;;;;;;;;;;5096113;28;20201;-68
2023/04/05 12:13:27;;;;;;;7.78;6.18;;;;;;;;;;5096480;28;20194;-69
2023/04/05 12:15:55;;;;;;;8.37;6.20;;;;;;;;;;5096021;28;20197;-67
2023/04/05 12:18:22;;;;;;;8.18;6.22;;;;;;;;;;5096655;28;20520;-67
2023/04/05 12:20:51;;;;;;;6.77;5.87;;;;;;;;;;5095823;28;20207;-67
2023/04/05 12:23:18;;;;;;;7.72;6.10;;;;;;;;;;5096000;28;20534;-67
2023/04/05 12:25:47;;;;;;;6.40;5.53;;;;;;;;;;5096009;28;20267;-67
2023/04/05 12:28:14;;;;;;;5.27;4.87;;;;;;;;;;5096167;28;20444;-67
2023/04/05 12:30:49;;;;;;;6.43;5.68;;;;;;;;;;5096189;28;20475;-68
2023/04/05 12:33:16;;;;;;;7.53;5.80;;;;;;;;;;5096440;28;20197;-67
2023/04/05 12:35:43;;;;;;;6.13;5.53;;;;;;;;;;5096436;28;20198;-67
2023/04/05 12:38:16;;;;;;;5.32;4.82;;;;;;;;;;5095709;28;20456;-67
2023/04/05 12:40:44;;;;;;;6.68;6.07;;;;;;;;;;5096078;28;20199;-67
2023/04/05 12:43:18;;;;;;;8.10;6.93;;;;;;;;;;5095575;28;20194;-67
2023/04/05 12:45:45;;;;;;;6.73;6.10;;;;;;;;;;5096081;28;20467;-68
2023/04/05 12:48:14;;;;;;;7.30;4.30;;;;;;;;;;5095590;28;20492;-68
2023/04/05 12:50:43;;;;;;;5.80;5.27;;;;;;;;;;5095613;28;20454;-68
2023/04/05 12:53:19;;;;;;;10.23;5.00;;;;;;;;;;5095436;28;20496;-67
2023/04/05 12:55:49;;;;;;;5.72;5.05;;;;;;;;;;5095756;28;20436;-67
2023/04/05 12:58:17;;;;;;;7.83;6.13;;;;;;;;;;5095816;28;20185;-67
2023/04/05 13:00:45;;;;;;;7.57;5.37;;;;;;;;;;5095169;28;20437;-68
2023/04/05 13:03:16;;;;;;;6.28;5.70;;;;;;;;;;5095286;28;20475;-67
2023/04/05 13:05:43;;;;;;;6.23;5.63;;;;;;;;;;5095108;28;20211;-67
2023/04/05 13:08:12;;;;;;;6.33;5.73;;;;;;;;;;5085449;28;20440;-68
2023/04/05 13:10:39;;;;;;;6.78;5.10;;;;;;;;;;5074156;28;20445;-67
2023/04/05 13:13:06;;;;;;;7.75;5.35;;;;;;;;;;5074760;28;20194;-67
2023/04/05 13:15:34;;;;;;;7.30;5.88;;;;;;;;;;5074646;28;20208;-67
2023/04/05 13:18:01;;;;;;;6.85;5.78;;;;;;;;;;5074964;28;20653;-67
2023/04/05 13:20:28;;;;;;;8.33;6.30;;;;;;;;;;5074833;28;20194;-68
2023/04/05 13:22:55;;;;;;;7.35;6.40;;;;;;;;;;5074982;28;20436;-67
2023/04/05 13:25:24;;;;;;;8.87;6.10;;;;;;;;;;5074578;28;20228;-67
2023/04/05 13:27:51;;;;;;;6.13;5.53;;;;;;;;;;5074765;28;20432;-67
2023/04/05 13:30:19;;;;;;;5.97;5.47;;;;;;;;;;5074472;28;20630;-67
2023/04/05 13:32:46;;;;;;;6.47;5.23;;;;;;;;;;5074217;28;20454;-67
2023/04/05 13:35:13;;;;;;;6.63;6.00;;;;;;;;;;5074171;28;20453;-67
2023/04/05 13:37:40;;;;;;;6.40;5.80;;;;;;;;;;5074033;28;20447;-67
2023/04/05 13:40:08;;;;;;;11.00;4.97;;;;;;;;;;5084725;28;20442;-68
2023/04/05 13:42:37;;;;;;;6.10;5.40;;;;;;;;;;5094377;28;20526;-68
2023/04/05 13:45:05;;;;;;;7.47;6.60;;;;;;;;;;5094186;28;20477;-67
2023/04/05 13:47:32;;;;;;;7.10;6.40;;;;;;;;;;5094330;28;20436;-67
2023/04/05 13:49:59;;;;;;;7.10;5.60;;;;;;;;;;5094156;28;20958;-67
2023/04/05 13:52:26;;;;;;;7.20;6.13;;;;;;;;;;5094004;28;20943;-67
2023/04/05 13:54:53;;;;;;;7.20;6.50;;;;;;;;;;5094191;28;20447;-67
2023/04/05 13:57:21;;;;;;;7.33;5.87;;;;;;;;;;5094110;28;20439;-67
2023/04/05 13:59:49;;;;;;;7.60;5.70;;;;;;;;;;5093612;28;20446;-67
2023/04/05 14:02:19;;;;;;;6.03;5.47;;;;;;;;;;5093148;28;20450;-69
2023/04/05 14:04:46;;;;;;;9.00;6.13;;;;;;;;;;5093694;28;20471;-67
2023/04/05 14:07:13;;;;;;;6.97;6.10;;;;;;;;;;5094104;28;20801;-67
2023/04/05 14:09:41;;;;;;;8.10;5.77;;;;;;;;;;5093497;28;20441;-67
2023/04/05 14:12:08;;;;;;;6.63;5.50;;;;;;;;;;5092972;28;20444;-67
2023/04/05 14:14:35;;;;;;;8.97;5.70;;;;;;;;;;5093681;28;20967;-66
2023/04/05 14:17:04;;;;;;;7.47;5.93;;;;;;;;;;5093362;28;20478;-67
2023/04/05 14:19:31;;;;;;;10.67;5.93;;;;;;;;;;5093563;28;20992;-67
2023/04/05 14:21:58;;;;;;;7.47;6.30;;;;;;;;;;5093395;28;20968;-66
2023/04/05 14:24:25;;;;;;;6.80;5.87;;;;;;;;;;5093456;28;20440;-66
2023/04/05 14:26:53;;;;;;;5.50;5.00;;;;;;;;;;5093053;28;20532;-67
2023/04/05 14:29:20;;;;;;;6.33;5.67;;;;;;;;;;5093666;28;20528;-67
2023/04/05 14:31:47;;;;;;;8.33;6.10;;;;;;;;;;5093162;28;20471;-66
2023/04/05 14:34:17;;;;;;;6.00;5.40;;;;;;;;;;5093244;28;20861;-67
2023/04/05 14:36:44;;;;;;;7.07;6.37;;;;;;;;;;5093376;28;20451;-66
2023/04/05 14:39:11;;;;;;;6.97;6.20;;;;;;;;;;5093260;28;20494;-66
2023/04/05 14:41:39;;;;;;;6.60;5.90;;;;;;;;;;5093847;28;20548;-67
2023/04/05 14:44:07;;;;;;;7.43;6.17;;;;;;;;;;5093484;28;20450;-66
2023/04/05 14:46:34;;;;;;;7.40;6.70;;;;;;;;;;5092905;28;20513;-67
2023/04/05 14:49:01;;;;;;;5.67;5.13;;;;;;;;;;5093368;28;20490;-66